KVGT Airport (North Las Vegas) Information

FAA: VGT - ICAO: KVGT

KVGT Airport Location

State Nevada
County Clark
City Las Vegas
KVGT Airport is 3 miles northwest of Las Vegas, NV.
Latitude 36-12-38.5310N
Longitude 115-11-39.9940W
Elevation 2,205ft

KVGT Airport METARs

METAR KVGT 072053Z 33011G19KT 10SM BKN070 13/00 A3010 RMK AO2 SLP212 T01280000 55009
Altimeter 30.10"
Temperature 12.8°C (55.0°F)
Wind 330° at 11KT with gusts to 19KT
Clouds broken at 7,000ft
Visibility 10.0mi
Time observed: 2022-12-07T20:53:00Z

KVGT Airport Details

Status Operational
Activation January 1942
Ownership Public
Usage Public
Chart LAS VEGAS
ATC on-site Yes
Beacon schedule sunset-sunrise
Beacon color clear green

KVGT Airport Contacts

Owner CLARK COUNTY
Owner address 2730 AIRPORT DR SUITE 101, NORTH LAS VEGAS, NV 89032
Owner phone 702-261-3800
Manager JOHN RICE
Manager address P.O. BOX 903, FERNLEY, NV 89408
Manager phone (775) 240-3481

KVGT Airport (North Las Vegas) Radio Frequencies

KVGT (Airport) Radio Frequencies

UNICOM 122.95
Common traffic advisory frequency (CTAF) 125.7